sensor_id;sensor_type;location;lat;lon;timestamp;P1;durP1;ratioP1;P2;durP2;ratioP2
75191;SDS011;63771;52.580;9.734;2023-07-31T00:00:29;3.63;;;2.70;;
75191;SDS011;63771;52.580;9.734;2023-07-31T00:02:54;4.10;;;2.87;;
75191;SDS011;63771;52.580;9.734;2023-07-31T00:05:20;4.45;;;2.75;;
75191;SDS011;63771;52.580;9.734;2023-07-31T00:07:46;6.35;;;2.72;;
75191;SDS011;63771;52.580;9.734;2023-07-31T00:10:11;3.20;;;2.93;;
75191;SDS011;63771;52.580;9.734;2023-07-31T00:12:37;4.45;;;3.35;;
75191;SDS011;63771;52.580;9.734;2023-07-31T00:15:03;3.53;;;3.17;;
75191;SDS011;63771;52.580;9.734;2023-07-31T00:17:29;3.50;;;3.20;;
75191;SDS011;63771;52.580;9.734;2023-07-31T00:19:54;4.28;;;3.40;;
75191;SDS011;63771;52.580;9.734;2023-07-31T00:22:20;4.23;;;3.00;;
75191;SDS011;63771;52.580;9.734;2023-07-31T00:24:45;5.77;;;3.47;;
75191;SDS011;63771;52.580;9.734;2023-07-31T00:27:10;5.05;;;3.78;;
75191;SDS011;63771;52.580;9.734;2023-07-31T00:29:36;3.10;;;2.80;;
75191;SDS011;63771;52.580;9.734;2023-07-31T00:32:01;4.23;;;3.30;;
75191;SDS011;63771;52.580;9.734;2023-07-31T00:34:26;3.87;;;3.57;;
75191;SDS011;63771;52.580;9.734;2023-07-31T00:36:52;4.63;;;3.20;;
75191;SDS011;63771;52.580;9.734;2023-07-31T00:39:17;3.70;;;3.40;;
75191;SDS011;63771;52.580;9.734;2023-07-31T00:41:42;3.77;;;3.30;;
75191;SDS011;63771;52.580;9.734;2023-07-31T00:44:08;2.97;;;2.77;;
75191;SDS011;63771;52.580;9.734;2023-07-31T00:46:33;3.03;;;2.83;;
75191;SDS011;63771;52.580;9.734;2023-07-31T00:48:58;5.10;;;2.97;;
75191;SDS011;63771;52.580;9.734;2023-07-31T00:51:24;3.20;;;2.95;;
75191;SDS011;63771;52.580;9.734;2023-07-31T00:53:49;3.40;;;2.70;;
75191;SDS011;63771;52.580;9.734;2023-07-31T00:56:15;4.00;;;3.03;;
75191;SDS011;63771;52.580;9.734;2023-07-31T00:58:41;3.20;;;2.90;;
75191;SDS011;63771;52.580;9.734;2023-07-31T01:01:06;3.92;;;2.58;;
75191;SDS011;63771;52.580;9.734;2023-07-31T01:03:31;2.60;;;2.23;;
75191;SDS011;63771;52.580;9.734;2023-07-31T01:11:38;3.45;;;2.92;;
75191;SDS011;63771;52.580;9.734;2023-07-31T01:14:11;2.67;;;2.47;;
75191;SDS011;63771;52.580;9.734;2023-07-31T01:16:36;2.53;;;2.33;;
75191;SDS011;63771;52.580;9.734;2023-07-31T01:19:02;2.23;;;2.13;;
75191;SDS011;63771;52.580;9.734;2023-07-31T01:24:19;2.08;;;1.90;;
75191;SDS011;63771;52.580;9.734;2023-07-31T01:27:02;2.13;;;1.92;;
75191;SDS011;63771;52.580;9.734;2023-07-31T01:32:01;2.50;;;2.30;;
75191;SDS011;63771;52.580;9.734;2023-07-31T01:34:28;3.83;;;2.22;;
75191;SDS011;63771;52.580;9.734;2023-07-31T01:36:55;3.10;;;2.03;;
75191;SDS011;63771;52.580;9.734;2023-07-31T01:39:21;3.97;;;2.72;;
75191;SDS011;63771;52.580;9.734;2023-07-31T01:41:46;2.50;;;2.30;;
75191;SDS011;63771;52.580;9.734;2023-07-31T01:44:11;3.50;;;2.40;;
75191;SDS011;63771;52.580;9.734;2023-07-31T01:46:37;2.67;;;2.05;;
75191;SDS011;63771;52.580;9.734;2023-07-31T01:49:02;2.13;;;2.03;;
75191;SDS011;63771;52.580;9.734;2023-07-31T01:51:27;3.67;;;2.33;;
75191;SDS011;63771;52.580;9.734;2023-07-31T01:53:53;3.00;;;2.35;;
75191;SDS011;63771;52.580;9.734;2023-07-31T01:56:18;3.10;;;2.80;;
75191;SDS011;63771;52.580;9.734;2023-07-31T01:58:43;2.53;;;2.33;;
75191;SDS011;63771;52.580;9.734;2023-07-31T02:01:09;2.03;;;1.92;;
75191;SDS011;63771;52.580;9.734;2023-07-31T02:03:34;2.30;;;2.10;;
75191;SDS011;63771;52.580;9.734;2023-07-31T02:05:59;2.50;;;2.27;;
75191;SDS011;63771;52.580;9.734;2023-07-31T02:08:25;2.03;;;1.93;;
75191;SDS011;63771;52.580;9.734;2023-07-31T02:10:51;2.30;;;2.20;;
75191;SDS011;63771;52.580;9.734;2023-07-31T02:13:16;2.30;;;2.00;;
75191;SDS011;63771;52.580;9.734;2023-07-31T02:15:42;1.97;;;1.87;;
75191;SDS011;63771;52.580;9.734;2023-07-31T02:18:07;2.43;;;2.13;;
75191;SDS011;63771;52.580;9.734;2023-07-31T02:20:35;2.23;;;1.80;;
75191;SDS011;63771;52.580;9.734;2023-07-31T02:23:01;2.45;;;1.80;;
75191;SDS011;63771;52.580;9.734;2023-07-31T02:25:26;1.85;;;1.75;;
75191;SDS011;63771;52.580;9.734;2023-07-31T02:27:52;1.92;;;1.83;;
75191;SDS011;63771;52.580;9.734;2023-07-31T02:30:17;1.70;;;1.60;;
75191;SDS011;63771;52.580;9.734;2023-07-31T02:32:42;2.17;;;1.80;;
75191;SDS011;63771;52.580;9.734;2023-07-31T02:35:07;1.40;;;1.40;;
75191;SDS011;63771;52.580;9.734;2023-07-31T02:37:33;1.97;;;1.87;;
75191;SDS011;63771;52.580;9.734;2023-07-31T02:39:59;1.60;;;1.50;;
75191;SDS011;63771;52.580;9.734;2023-07-31T02:42:24;2.03;;;1.50;;
75191;SDS011;63771;52.580;9.734;2023-07-31T02:44:49;1.43;;;1.33;;
75191;SDS011;63771;52.580;9.734;2023-07-31T02:47:20;1.90;;;1.60;;
75191;SDS011;63771;52.580;9.734;2023-07-31T02:49:45;1.50;;;1.37;;
75191;SDS011;63771;52.580;9.734;2023-07-31T02:52:11;2.73;;;1.70;;
75191;SDS011;63771;52.580;9.734;2023-07-31T02:54:36;2.20;;;2.10;;
75191;SDS011;63771;52.580;9.734;2023-07-31T02:57:01;2.20;;;1.57;;
75191;SDS011;63771;52.580;9.734;2023-07-31T02:59:27;2.30;;;1.60;;
75191;SDS011;63771;52.580;9.734;2023-07-31T03:01:53;2.45;;;1.90;;
75191;SDS011;63771;52.580;9.734;2023-07-31T03:04:18;2.77;;;1.40;;
75191;SDS011;63771;52.580;9.734;2023-07-31T03:06:43;1.87;;;1.70;;
75191;SDS011;63771;52.580;9.734;2023-07-31T03:09:09;4.57;;;1.53;;
75191;SDS011;63771;52.580;9.734;2023-07-31T03:11:34;1.63;;;1.53;;
75191;SDS011;63771;52.580;9.734;2023-07-31T03:13:59;1.80;;;1.70;;
75191;SDS011;63771;52.580;9.734;2023-07-31T03:16:24;1.70;;;1.60;;
75191;SDS011;63771;52.580;9.734;2023-07-31T03:18:50;2.13;;;1.47;;
75191;SDS011;63771;52.580;9.734;2023-07-31T03:21:15;1.90;;;1.70;;
75191;SDS011;63771;52.580;9.734;2023-07-31T03:23:40;1.63;;;1.53;;
75191;SDS011;63771;52.580;9.734;2023-07-31T03:26:06;3.13;;;1.75;;
75191;SDS011;63771;52.580;9.734;2023-07-31T03:28:32;1.35;;;1.30;;
75191;SDS011;63771;52.580;9.734;2023-07-31T03:30:58;3.17;;;1.50;;
75191;SDS011;63771;52.580;9.734;2023-07-31T03:33:23;1.60;;;1.50;;
75191;SDS011;63771;52.580;9.734;2023-07-31T03:35:48;1.70;;;1.60;;
75191;SDS011;63771;52.580;9.734;2023-07-31T03:38:14;1.90;;;1.55;;
75191;SDS011;63771;52.580;9.734;2023-07-31T03:40:39;1.70;;;1.60;;
75191;SDS011;63771;52.580;9.734;2023-07-31T03:43:05;1.60;;;1.50;;
75191;SDS011;63771;52.580;9.734;2023-07-31T03:45:30;1.50;;;1.40;;
75191;SDS011;63771;52.580;9.734;2023-07-31T03:47:56;1.35;;;1.35;;
75191;SDS011;63771;52.580;9.734;2023-07-31T03:50:21;1.70;;;1.60;;
75191;SDS011;63771;52.580;9.734;2023-07-31T03:52:46;1.70;;;1.30;;
75191;SDS011;63771;52.580;9.734;2023-07-31T03:55:12;1.50;;;1.50;;
75191;SDS011;63771;52.580;9.734;2023-07-31T03:57:37;2.08;;;1.98;;
75191;SDS011;63771;52.580;9.734;2023-07-31T04:00:03;2.27;;;1.97;;
75191;SDS011;63771;52.580;9.734;2023-07-31T04:02:28;1.77;;;1.60;;
75191;SDS011;63771;52.580;9.734;2023-07-31T04:04:54;1.40;;;1.40;;
75191;SDS011;63771;52.580;9.734;2023-07-31T04:07:19;2.28;;;1.27;;
75191;SDS011;63771;52.580;9.734;2023-07-31T04:09:44;1.40;;;1.30;;
75191;SDS011;63771;52.580;9.734;2023-07-31T04:12:10;4.03;;;1.60;;
75191;SDS011;63771;52.580;9.734;2023-07-31T04:14:35;2.25;;;2.05;;
75191;SDS011;63771;52.580;9.734;2023-07-31T04:17:00;1.42;;;1.42;;
75191;SDS011;63771;52.580;9.734;2023-07-31T04:19:26;2.27;;;1.43;;
75191;SDS011;63771;52.580;9.734;2023-07-31T04:21:51;2.20;;;1.90;;
75191;SDS011;63771;52.580;9.734;2023-07-31T04:24:16;2.10;;;1.70;;
75191;SDS011;63771;52.580;9.734;2023-07-31T04:26:49;1.63;;;1.52;;
75191;SDS011;63771;52.580;9.734;2023-07-31T04:29:14;1.50;;;1.47;;
75191;SDS011;63771;52.580;9.734;2023-07-31T04:31:40;3.00;;;1.55;;
75191;SDS011;63771;52.580;9.734;2023-07-31T04:34:06;3.90;;;1.50;;
75191;SDS011;63771;52.580;9.734;2023-07-31T04:36:31;3.20;;;1.70;;
75191;SDS011;63771;52.580;9.734;2023-07-31T04:38:56;1.33;;;1.30;;
75191;SDS011;63771;52.580;9.734;2023-07-31T04:41:22;2.43;;;1.57;;
75191;SDS011;63771;52.580;9.734;2023-07-31T04:43:47;1.67;;;1.57;;
75191;SDS011;63771;52.580;9.734;2023-07-31T04:46:12;1.90;;;1.70;;
75191;SDS011;63771;52.580;9.734;2023-07-31T04:48:38;1.97;;;1.30;;
75191;SDS011;63771;52.580;9.734;2023-07-31T04:51:03;1.70;;;1.50;;
75191;SDS011;63771;52.580;9.734;2023-07-31T04:53:28;1.63;;;1.53;;
75191;SDS011;63771;52.580;9.734;2023-07-31T04:55:54;1.40;;;1.40;;
75191;SDS011;63771;52.580;9.734;2023-07-31T04:58:19;1.73;;;1.57;;
75191;SDS011;63771;52.580;9.734;2023-07-31T05:00:44;1.60;;;1.50;;
75191;SDS011;63771;52.580;9.734;2023-07-31T05:03:10;1.40;;;1.30;;
75191;SDS011;63771;52.580;9.734;2023-07-31T05:05:36;1.15;;;1.08;;
75191;SDS011;63771;52.580;9.734;2023-07-31T05:08:01;1.83;;;1.07;;
75191;SDS011;63771;52.580;9.734;2023-07-31T05:10:27;1.60;;;1.50;;
75191;SDS011;63771;52.580;9.734;2023-07-31T05:12:52;1.20;;;1.20;;
75191;SDS011;63771;52.580;9.734;2023-07-31T05:15:17;2.10;;;1.10;;
75191;SDS011;63771;52.580;9.734;2023-07-31T05:17:43;1.40;;;1.30;;
75191;SDS011;63771;52.580;9.734;2023-07-31T05:20:08;1.27;;;1.17;;
75191;SDS011;63771;52.580;9.734;2023-07-31T05:22:34;1.48;;;1.17;;
75191;SDS011;63771;52.580;9.734;2023-07-31T05:24:59;2.13;;;1.20;;
75191;SDS011;63771;52.580;9.734;2023-07-31T05:27:25;1.75;;;1.63;;
75191;SDS011;63771;52.580;9.734;2023-07-31T05:29:50;3.17;;;1.58;;
75191;SDS011;63771;52.580;9.734;2023-07-31T05:32:15;1.20;;;1.10;;
75191;SDS011;63771;52.580;9.734;2023-07-31T05:34:41;1.50;;;1.40;;
75191;SDS011;63771;52.580;9.734;2023-07-31T05:37:07;2.50;;;1.23;;
75191;SDS011;63771;52.580;9.734;2023-07-31T05:39:32;1.20;;;1.20;;
75191;SDS011;63771;52.580;9.734;2023-07-31T05:41:57;1.70;;;1.60;;
75191;SDS011;63771;52.580;9.734;2023-07-31T05:44:22;1.33;;;1.23;;
75191;SDS011;63771;52.580;9.734;2023-07-31T05:46:48;1.57;;;1.30;;
75191;SDS011;63771;52.580;9.734;2023-07-31T05:49:13;1.55;;;1.35;;
75191;SDS011;63771;52.580;9.734;2023-07-31T05:51:39;1.33;;;1.23;;
75191;SDS011;63771;52.580;9.734;2023-07-31T05:54:04;1.13;;;1.13;;
75191;SDS011;63771;52.580;9.734;2023-07-31T05:56:29;3.58;;;1.23;;
75191;SDS011;63771;52.580;9.734;2023-07-31T05:58:55;1.30;;;1.30;;
75191;SDS011;63771;52.580;9.734;2023-07-31T06:01:22;1.02;;;1.02;;
75191;SDS011;63771;52.580;9.734;2023-07-31T06:03:47;1.75;;;1.00;;
75191;SDS011;63771;52.580;9.734;2023-07-31T06:06:13;2.60;;;1.25;;
75191;SDS011;63771;52.580;9.734;2023-07-31T06:08:38;0.85;;;0.85;;
75191;SDS011;63771;52.580;9.734;2023-07-31T06:11:04;1.00;;;1.00;;
75191;SDS011;63771;52.580;9.734;2023-07-31T06:13:30;1.38;;;1.27;;
75191;SDS011;63771;52.580;9.734;2023-07-31T06:15:56;1.10;;;1.10;;
75191;SDS011;63771;52.580;9.734;2023-07-31T06:18:21;1.47;;;1.47;;
75191;SDS011;63771;52.580;9.734;2023-07-31T06:20:46;1.07;;;1.07;;
75191;SDS011;63771;52.580;9.734;2023-07-31T06:23:12;1.48;;;1.40;;
75191;SDS011;63771;52.580;9.734;2023-07-31T06:25:37;1.83;;;1.70;;
75191;SDS011;63771;52.580;9.734;2023-07-31T06:28:03;1.97;;;1.73;;
75191;SDS011;63771;52.580;9.734;2023-07-31T06:30:28;1.83;;;1.73;;
75191;SDS011;63771;52.580;9.734;2023-07-31T06:32:53;2.30;;;2.10;;
75191;SDS011;63771;52.580;9.734;2023-07-31T06:35:19;2.63;;;2.43;;
75191;SDS011;63771;52.580;9.734;2023-07-31T06:37:44;3.70;;;2.65;;
75191;SDS011;63771;52.580;9.734;2023-07-31T06:40:09;2.77;;;2.57;;
75191;SDS011;63771;52.580;9.734;2023-07-31T06:42:35;4.30;;;3.40;;
75191;SDS011;63771;52.580;9.734;2023-07-31T06:45:01;4.20;;;3.90;;
75191;SDS011;63771;52.580;9.734;2023-07-31T06:47:27;4.43;;;3.58;;
75191;SDS011;63771;52.580;9.734;2023-07-31T06:49:52;6.00;;;4.03;;
75191;SDS011;63771;52.580;9.734;2023-07-31T06:52:18;8.45;;;4.40;;
75191;SDS011;63771;52.580;9.734;2023-07-31T06:54:53;5.65;;;4.70;;
75191;SDS011;63771;52.580;9.734;2023-07-31T06:57:26;5.93;;;4.47;;
75191;SDS011;63771;52.580;9.734;2023-07-31T06:59:51;5.60;;;3.90;;
75191;SDS011;63771;52.580;9.734;2023-07-31T07:02:17;9.10;;;4.90;;
75191;SDS011;63771;52.580;9.734;2023-07-31T07:04:42;5.13;;;3.87;;
75191;SDS011;63771;52.580;9.734;2023-07-31T07:07:07;7.30;;;5.37;;
75191;SDS011;63771;52.580;9.734;2023-07-31T07:09:33;6.63;;;5.17;;
75191;SDS011;63771;52.580;9.734;2023-07-31T07:11:58;6.97;;;4.47;;
75191;SDS011;63771;52.580;9.734;2023-07-31T07:14:23;6.30;;;4.73;;
75191;SDS011;63771;52.580;9.734;2023-07-31T07:16:50;4.90;;;4.40;;
75191;SDS011;63771;52.580;9.734;2023-07-31T07:19:16;8.70;;;4.72;;
75191;SDS011;63771;52.580;9.734;2023-07-31T07:21:41;5.17;;;4.40;;
75191;SDS011;63771;52.580;9.734;2023-07-31T07:24:07;7.90;;;4.93;;
75191;SDS011;63771;52.580;9.734;2023-07-31T07:26:32;6.10;;;4.87;;
75191;SDS011;63771;52.580;9.734;2023-07-31T07:28:57;12.00;;;5.13;;
75191;SDS011;63771;52.580;9.734;2023-07-31T07:31:23;8.27;;;5.30;;
75191;SDS011;63771;52.580;9.734;2023-07-31T07:33:48;7.73;;;4.73;;
75191;SDS011;63771;52.580;9.734;2023-07-31T07:36:14;5.75;;;5.10;;
75191;SDS011;63771;52.580;9.734;2023-07-31T07:38:39;10.90;;;5.63;;
75191;SDS011;63771;52.580;9.734;2023-07-31T07:41:04;8.67;;;5.47;;
75191;SDS011;63771;52.580;9.734;2023-07-31T07:43:29;11.10;;;6.30;;
75191;SDS011;63771;52.580;9.734;2023-07-31T07:45:55;7.37;;;4.90;;
75191;SDS011;63771;52.580;9.734;2023-07-31T07:48:20;10.37;;;6.07;;
75191;SDS011;63771;52.580;9.734;2023-07-31T07:50:46;11.70;;;5.90;;
75191;SDS011;63771;52.580;9.734;2023-07-31T07:53:12;11.17;;;5.03;;
75191;SDS011;63771;52.580;9.734;2023-07-31T07:55:37;10.10;;;6.37;;
75191;SDS011;63771;52.580;9.734;2023-07-31T07:58:03;11.73;;;6.28;;
75191;SDS011;63771;52.580;9.734;2023-07-31T08:00:28;14.70;;;6.00;;
75191;SDS011;63771;52.580;9.734;2023-07-31T08:02:53;9.50;;;4.80;;
75191;SDS011;63771;52.580;9.734;2023-07-31T08:05:19;7.50;;;4.70;;
75191;SDS011;63771;52.580;9.734;2023-07-31T08:07:44;11.23;;;5.37;;
75191;SDS011;63771;52.580;9.734;2023-07-31T08:10:09;8.10;;;5.10;;
75191;SDS011;63771;52.580;9.734;2023-07-31T08:12:35;9.93;;;6.10;;
75191;SDS011;63771;52.580;9.734;2023-07-31T08:15:00;11.03;;;6.07;;
75191;SDS011;63771;52.580;9.734;2023-07-31T08:17:25;7.83;;;5.00;;
75191;SDS011;63771;52.580;9.734;2023-07-31T08:19:51;8.77;;;5.17;;
75191;SDS011;63771;52.580;9.734;2023-07-31T08:22:16;13.20;;;6.93;;
75191;SDS011;63771;52.580;9.734;2023-07-31T08:24:41;15.83;;;5.83;;
75191;SDS011;63771;52.580;9.734;2023-07-31T08:27:07;10.13;;;5.30;;
75191;SDS011;63771;52.580;9.734;2023-07-31T08:29:32;8.83;;;5.33;;
75191;SDS011;63771;52.580;9.734;2023-07-31T08:31:57;12.07;;;6.20;;
75191;SDS011;63771;52.580;9.734;2023-07-31T08:34:22;10.93;;;4.87;;
75191;SDS011;63771;52.580;9.734;2023-07-31T08:36:48;7.43;;;5.10;;
75191;SDS011;63771;52.580;9.734;2023-07-31T08:39:13;11.17;;;5.13;;
75191;SDS011;63771;52.580;9.734;2023-07-31T08:41:38;10.38;;;5.65;;
75191;SDS011;63771;52.580;9.734;2023-07-31T08:44:04;9.63;;;5.32;;
75191;SDS011;63771;52.580;9.734;2023-07-31T08:46:30;6.57;;;4.70;;
75191;SDS011;63771;52.580;9.734;2023-07-31T08:48:56;8.77;;;4.28;;
75191;SDS011;63771;52.580;9.734;2023-07-31T08:51:23;7.63;;;4.90;;
75191;SDS011;63771;52.580;9.734;2023-07-31T08:53:48;9.75;;;5.18;;
75191;SDS011;63771;52.580;9.734;2023-07-31T08:56:14;9.65;;;5.05;;
75191;SDS011;63771;52.580;9.734;2023-07-31T08:58:41;8.02;;;4.00;;
75191;SDS011;63771;52.580;9.734;2023-07-31T09:01:07;8.95;;;4.22;;
75191;SDS011;63771;52.580;9.734;2023-07-31T09:03:33;9.63;;;4.50;;
75191;SDS011;63771;52.580;9.734;2023-07-31T09:06:00;7.65;;;4.53;;
75191;SDS011;63771;52.580;9.734;2023-07-31T09:08:30;8.75;;;4.65;;
75191;SDS011;63771;52.580;9.734;2023-07-31T09:10:59;9.90;;;4.60;;
75191;SDS011;63771;52.580;9.734;2023-07-31T09:13:27;10.75;;;3.80;;
75191;SDS011;63771;52.580;9.734;2023-07-31T09:15:53;5.53;;;4.03;;
75191;SDS011;63771;52.580;9.734;2023-07-31T09:18:18;7.07;;;4.77;;
75191;SDS011;63771;52.580;9.734;2023-07-31T09:20:51;6.47;;;3.75;;
75191;SDS011;63771;52.580;9.734;2023-07-31T09:23:25;7.05;;;4.03;;
75191;SDS011;63771;52.580;9.734;2023-07-31T09:25:51;12.00;;;4.85;;
75191;SDS011;63771;52.580;9.734;2023-07-31T09:28:16;8.17;;;4.30;;
75191;SDS011;63771;52.580;9.734;2023-07-31T09:30:51;6.63;;;3.87;;
75191;SDS011;63771;52.580;9.734;2023-07-31T09:33:17;6.88;;;3.92;;
75191;SDS011;63771;52.580;9.734;2023-07-31T09:35:43;5.72;;;3.70;;
75191;SDS011;63771;52.580;9.734;2023-07-31T09:38:10;6.50;;;3.63;;
75191;SDS011;63771;52.580;9.734;2023-07-31T09:40:44;8.35;;;3.58;;
75191;SDS011;63771;52.580;9.734;2023-07-31T09:43:11;5.45;;;3.42;;
75191;SDS011;63771;52.580;9.734;2023-07-31T09:45:38;4.72;;;3.65;;
75191;SDS011;63771;52.580;9.734;2023-07-31T09:48:14;6.00;;;3.63;;
75191;SDS011;63771;52.580;9.734;2023-07-31T09:50:41;4.53;;;3.45;;
75191;SDS011;63771;52.580;9.734;2023-07-31T09:53:10;6.00;;;3.85;;
75191;SDS011;63771;52.580;9.734;2023-07-31T09:55:36;5.65;;;3.47;;
75191;SDS011;63771;52.580;9.734;2023-07-31T09:58:03;5.78;;;3.00;;
75191;SDS011;63771;52.580;9.734;2023-07-31T10:00:31;3.25;;;2.60;;
75191;SDS011;63771;52.580;9.734;2023-07-31T10:03:00;2.72;;;2.40;;
75191;SDS011;63771;52.580;9.734;2023-07-31T10:05:31;2.45;;;2.33;;
75191;SDS011;63771;52.580;9.734;2023-07-31T10:10:31;3.47;;;2.53;;
75191;SDS011;63771;52.580;9.734;2023-07-31T10:12:57;4.93;;;3.25;;
75191;SDS011;63771;52.580;9.734;2023-07-31T10:15:24;3.35;;;3.05;;
75191;SDS011;63771;52.580;9.734;2023-07-31T10:17:51;4.68;;;3.60;;
75191;SDS011;63771;52.580;9.734;2023-07-31T10:20:16;3.85;;;2.78;;
75191;SDS011;63771;52.580;9.734;2023-07-31T10:22:42;3.80;;;3.17;;
75191;SDS011;63771;52.580;9.734;2023-07-31T10:25:11;4.03;;;3.38;;
75191;SDS011;63771;52.580;9.734;2023-07-31T10:27:36;3.40;;;3.13;;
75191;SDS011;63771;52.580;9.734;2023-07-31T10:30:03;3.80;;;3.20;;
75191;SDS011;63771;52.580;9.734;2023-07-31T10:32:32;3.45;;;2.90;;
75191;SDS011;63771;52.580;9.734;2023-07-31T10:34:58;5.03;;;2.92;;
75191;SDS011;63771;52.580;9.734;2023-07-31T10:39:57;4.22;;;2.75;;
75191;SDS011;63771;52.580;9.734;2023-07-31T10:42:31;2.60;;;2.42;;
75191;SDS011;63771;52.580;9.734;2023-07-31T10:45:00;4.10;;;2.75;;
75191;SDS011;63771;52.580;9.734;2023-07-31T10:47:27;2.75;;;2.20;;
75191;SDS011;63771;52.580;9.734;2023-07-31T10:49:53;3.05;;;2.60;;
75191;SDS011;63771;52.580;9.734;2023-07-31T10:52:36;2.33;;;2.15;;
75191;SDS011;63771;52.580;9.734;2023-07-31T11:00:32;2.40;;;2.17;;
75191;SDS011;63771;52.580;9.734;2023-07-31T11:02:58;5.90;;;2.00;;
75191;SDS011;63771;52.580;9.734;2023-07-31T11:10:40;2.10;;;1.90;;
75191;SDS011;63771;52.580;9.734;2023-07-31T11:13:05;3.58;;;1.85;;
75191;SDS011;63771;52.580;9.734;2023-07-31T11:15:31;1.85;;;1.75;;
75191;SDS011;63771;52.580;9.734;2023-07-31T11:17:56;2.53;;;1.85;;
75191;SDS011;63771;52.580;9.734;2023-07-31T11:20:23;2.55;;;1.70;;
75191;SDS011;63771;52.580;9.734;2023-07-31T11:22:49;1.92;;;1.83;;
75191;SDS011;63771;52.580;9.734;2023-07-31T11:25:14;2.10;;;2.00;;
75191;SDS011;63771;52.580;9.734;2023-07-31T11:27:41;1.80;;;1.60;;
75191;SDS011;63771;52.580;9.734;2023-07-31T11:30:08;2.10;;;1.90;;
75191;SDS011;63771;52.580;9.734;2023-07-31T11:32:36;2.03;;;1.90;;
75191;SDS011;63771;52.580;9.734;2023-07-31T11:35:02;1.90;;;1.80;;
75191;SDS011;63771;52.580;9.734;2023-07-31T11:37:39;1.95;;;1.85;;
75191;SDS011;63771;52.580;9.734;2023-07-31T11:40:05;2.47;;;2.28;;
75191;SDS011;63771;52.580;9.734;2023-07-31T11:42:31;2.70;;;1.80;;
75191;SDS011;63771;52.580;9.734;2023-07-31T11:44:56;1.40;;;1.40;;
75191;SDS011;63771;52.580;9.734;2023-07-31T11:47:21;1.67;;;1.57;;
75191;SDS011;63771;52.580;9.734;2023-07-31T11:49:47;1.92;;;1.83;;
75191;SDS011;63771;52.580;9.734;2023-07-31T11:52:14;1.80;;;1.70;;
75191;SDS011;63771;52.580;9.734;2023-07-31T11:54:40;2.83;;;1.58;;
75191;SDS011;63771;52.580;9.734;2023-07-31T11:57:06;1.90;;;1.38;;
75191;SDS011;63771;52.580;9.734;2023-07-31T11:59:32;3.40;;;1.50;;
75191;SDS011;63771;52.580;9.734;2023-07-31T12:01:58;3.28;;;1.70;;
75191;SDS011;63771;52.580;9.734;2023-07-31T12:04:23;4.10;;;1.90;;
75191;SDS011;63771;52.580;9.734;2023-07-31T12:06:49;2.55;;;1.60;;
75191;SDS011;63771;52.580;9.734;2023-07-31T12:09:17;2.55;;;1.30;;
75191;SDS011;63771;52.580;9.734;2023-07-31T12:11:46;1.67;;;1.58;;
75191;SDS011;63771;52.580;9.734;2023-07-31T12:14:22;2.15;;;1.83;;
75191;SDS011;63771;52.580;9.734;2023-07-31T12:16:56;7.30;;;1.60;;
75191;SDS011;63771;52.580;9.734;2023-07-31T12:19:25;1.40;;;1.30;;
75191;SDS011;63771;52.580;9.734;2023-07-31T12:21:54;1.38;;;1.33;;
75191;SDS011;63771;52.580;9.734;2023-07-31T12:24:20;1.10;;;1.10;;
75191;SDS011;63771;52.580;9.734;2023-07-31T12:26:46;1.10;;;1.10;;
75191;SDS011;63771;52.580;9.734;2023-07-31T12:29:11;1.80;;;1.17;;
75191;SDS011;63771;52.580;9.734;2023-07-31T12:31:37;1.08;;;1.08;;
75191;SDS011;63771;52.580;9.734;2023-07-31T12:34:14;1.00;;;1.00;;
75191;SDS011;63771;52.580;9.734;2023-07-31T12:36:40;1.23;;;1.17;;
75191;SDS011;63771;52.580;9.734;2023-07-31T12:39:07;1.40;;;1.30;;
75191;SDS011;63771;52.580;9.734;2023-07-31T12:41:33;1.48;;;1.38;;
75191;SDS011;63771;52.580;9.734;2023-07-31T12:43:58;2.43;;;1.20;;
75191;SDS011;63771;52.580;9.734;2023-07-31T12:46:24;1.42;;;1.30;;
75191;SDS011;63771;52.580;9.734;2023-07-31T12:48:49;1.30;;;1.20;;
75191;SDS011;63771;52.580;9.734;2023-07-31T12:51:14;1.50;;;1.40;;
75191;SDS011;63771;52.580;9.734;2023-07-31T12:53:39;1.67;;;1.57;;
75191;SDS011;63771;52.580;9.734;2023-07-31T12:56:05;1.10;;;1.10;;
75191;SDS011;63771;52.580;9.734;2023-07-31T12:58:30;1.10;;;1.10;;
75191;SDS011;63771;52.580;9.734;2023-07-31T13:00:56;1.95;;;1.20;;
75191;SDS011;63771;52.580;9.734;2023-07-31T13:03:21;1.05;;;1.05;;
75191;SDS011;63771;52.580;9.734;2023-07-31T13:05:46;3.65;;;1.33;;
75191;SDS011;63771;52.580;9.734;2023-07-31T13:08:12;1.10;;;1.10;;
75191;SDS011;63771;52.580;9.734;2023-07-31T13:10:37;1.00;;;1.00;;
75191;SDS011;63771;52.580;9.734;2023-07-31T13:13:02;1.20;;;1.20;;
75191;SDS011;63771;52.580;9.734;2023-07-31T13:15:28;1.10;;;1.10;;
75191;SDS011;63771;52.580;9.734;2023-07-31T13:17:53;1.15;;;1.15;;
75191;SDS011;63771;52.580;9.734;2023-07-31T13:20:18;1.00;;;1.00;;
75191;SDS011;63771;52.580;9.734;2023-07-31T13:22:44;1.50;;;1.20;;
75191;SDS011;63771;52.580;9.734;2023-07-31T13:25:09;1.50;;;1.40;;
75191;SDS011;63771;52.580;9.734;2023-07-31T13:27:34;2.00;;;1.80;;
75191;SDS011;63771;52.580;9.734;2023-07-31T13:30:00;2.67;;;1.50;;
75191;SDS011;63771;52.580;9.734;2023-07-31T13:32:25;2.30;;;1.50;;
75191;SDS011;63771;52.580;9.734;2023-07-31T13:34:51;1.70;;;1.52;;
75191;SDS011;63771;52.580;9.734;2023-07-31T13:37:16;1.30;;;1.30;;
75191;SDS011;63771;52.580;9.734;2023-07-31T13:39:42;1.35;;;1.25;;
75191;SDS011;63771;52.580;9.734;2023-07-31T13:42:07;2.92;;;1.30;;
75191;SDS011;63771;52.580;9.734;2023-07-31T13:44:35;1.42;;;1.42;;
75191;SDS011;63771;52.580;9.734;2023-07-31T13:47:00;1.33;;;1.23;;
75191;SDS011;63771;52.580;9.734;2023-07-31T13:49:26;2.03;;;1.20;;
75191;SDS011;63771;52.580;9.734;2023-07-31T13:51:52;2.55;;;1.40;;
75191;SDS011;63771;52.580;9.734;2023-07-31T13:54:17;1.60;;;1.50;;
75191;SDS011;63771;52.580;9.734;2023-07-31T13:56:43;1.40;;;1.30;;
75191;SDS011;63771;52.580;9.734;2023-07-31T13:59:09;1.08;;;1.08;;
75191;SDS011;63771;52.580;9.734;2023-07-31T14:01:35;3.20;;;1.17;;
75191;SDS011;63771;52.580;9.734;2023-07-31T14:04:00;1.30;;;1.20;;
75191;SDS011;63771;52.580;9.734;2023-07-31T14:06:25;2.00;;;1.30;;
75191;SDS011;63771;52.580;9.734;2023-07-31T14:08:51;1.35;;;1.27;;
75191;SDS011;63771;52.580;9.734;2023-07-31T14:11:16;1.00;;;1.00;;
75191;SDS011;63771;52.580;9.734;2023-07-31T14:13:41;1.50;;;1.30;;
75191;SDS011;63771;52.580;9.734;2023-07-31T14:16:07;1.30;;;1.30;;
75191;SDS011;63771;52.580;9.734;2023-07-31T14:18:32;1.10;;;1.10;;
75191;SDS011;63771;52.580;9.734;2023-07-31T14:20:57;1.33;;;1.23;;
75191;SDS011;63771;52.580;9.734;2023-07-31T14:23:23;1.02;;;1.02;;
75191;SDS011;63771;52.580;9.734;2023-07-31T14:25:48;3.20;;;0.80;;
75191;SDS011;63771;52.580;9.734;2023-07-31T14:28:13;1.30;;;1.20;;
75191;SDS011;63771;52.580;9.734;2023-07-31T14:30:39;1.42;;;1.33;;
75191;SDS011;63771;52.580;9.734;2023-07-31T14:33:04;1.40;;;1.30;;
75191;SDS011;63771;52.580;9.734;2023-07-31T14:35:29;1.65;;;1.50;;
75191;SDS011;63771;52.580;9.734;2023-07-31T14:37:55;1.37;;;1.33;;
75191;SDS011;63771;52.580;9.734;2023-07-31T14:40:20;1.53;;;1.53;;
75191;SDS011;63771;52.580;9.734;2023-07-31T14:42:45;2.70;;;1.45;;
75191;SDS011;63771;52.580;9.734;2023-07-31T14:45:11;1.40;;;1.30;;
75191;SDS011;63771;52.580;9.734;2023-07-31T14:47:36;1.67;;;1.58;;
75191;SDS011;63771;52.580;9.734;2023-07-31T14:50:02;1.75;;;1.65;;
75191;SDS011;63771;52.580;9.734;2023-07-31T14:52:28;2.15;;;2.05;;
75191;SDS011;63771;52.580;9.734;2023-07-31T14:54:53;2.38;;;2.25;;
75191;SDS011;63771;52.580;9.734;2023-07-31T14:57:19;2.58;;;2.35;;
75191;SDS011;63771;52.580;9.734;2023-07-31T14:59:45;3.03;;;2.72;;
75191;SDS011;63771;52.580;9.734;2023-07-31T15:02:11;3.75;;;2.67;;
75191;SDS011;63771;52.580;9.734;2023-07-31T15:04:37;3.00;;;2.80;;
75191;SDS011;63771;52.580;9.734;2023-07-31T15:07:02;3.05;;;2.75;;